Big Bear Station Historical Data
Daily Summary for April 5, 2019 Units:  English    Metric   Both
Next Day »
Daily Weekly Monthly Yearly Custom
  High: Low: Average:
Temperature: 47.1 °F 30.7 °F 37.7 °F
Dew Point: 39.5 °F 26.4 °F 34 °F
Humidity: 95% 73% 87%
Wind Speed: 8.3mph 0.0mph 2.1mph
Wind Gust: -999.0mph - -
Wind- - West
Pressure: 23.44 in 23.35 in -
Precipitation: 0.00 in    
Historical Graphs
 
 
Tabular Data for April 5, 2019
Time Temperature Dew Point Pressure Wind Wind Speed Wind Gust Humidity Rainfall Rate (Hourly)
00:01 36.9 °F 32.5 °F 23.39 in NW 5.3 mph -999.0 mph 84% 0.00 in
00:16 35.8 °F 34.0 °F 23.38 in WNW 8.3 mph -999.0 mph 93% 0.00 in
00:31 35.2 °F 33.6 °F 23.38 in WNW 6.3 mph -999.0 mph 94% 0.00 in
00:46 34.7 °F 33.4 °F 23.38 in North 4.2 mph -999.0 mph 95% 0.00 in
01:01 34.3 °F 32.5 °F 23.38 in Calm   -999.0 mph 93% 0.00 in
01:17 34.5 °F 32.4 °F 23.38 in North 3.2 mph -999.0 mph 92% 0.00 in
01:32 34.3 °F 31.7 °F 23.38 in WNW 2.2 mph -999.0 mph 90% 0.00 in
01:47 34.5 °F 31.9 °F 23.38 in SSW 1.1 mph -999.0 mph 90% 0.00 in
02:03 34.5 °F 31.6 °F 23.38 in NNE 1.1 mph -999.0 mph 89% 0.00 in
02:18 34.5 °F 31.3 °F 23.38 in Calm   -999.0 mph 88% 0.00 in
02:33 34.7 °F 31.8 °F 23.38 in Calm   -999.0 mph 89% 0.00 in
02:48 34.9 °F 31.1 °F 23.38 in Calm   -999.0 mph 86% 0.00 in
03:03 35.2 °F 30.9 °F 23.37 in North 2.2 mph -999.0 mph 84% 0.00 in
03:19 34.9 °F 31.1 °F 23.37 in Calm   -999.0 mph 86% 0.00 in
03:34 34.9 °F 31.7 °F 23.37 in WNW 3.2 mph -999.0 mph 88% 0.00 in
03:49 34.7 °F 31.5 °F 23.37 in Calm   -999.0 mph 88% 0.00 in
04:04 34.5 °F 31.6 °F 23.36 in SW 1.1 mph -999.0 mph 89% 0.00 in
04:20 33.4 °F 30.5 °F 23.36 in West 1.7 mph -999.0 mph 89% 0.00 in
04:35 33.1 °F 30.2 °F 23.36 in Calm   -999.0 mph 89% 0.00 in
04:50 32.5 °F 29.3 °F 23.35 in Calm   -999.0 mph 88% 0.00 in
05:05 32.0 °F 27.4 °F 23.36 in South 2.2 mph -999.0 mph 83% 0.00 in
05:20 31.6 °F 26.4 °F 23.36 in Calm   -999.0 mph 81% 0.00 in
05:36 31.5 °F 26.9 °F 23.36 in Calm   -999.0 mph 83% 0.00 in
05:51 30.9 °F 27.2 °F 23.36 in Calm   -999.0 mph 86% 0.00 in
06:06 30.7 °F 27.6 °F 23.36 in Calm   -999.0 mph 88% 0.00 in
06:21 31.3 °F 28.4 °F 23.36 in Calm   -999.0 mph 89% 0.00 in
06:36 31.6 °F 29.0 °F 23.36 in Calm   -999.0 mph 90% 0.00 in
06:52 32.0 °F 29.4 °F 23.36 in Calm   -999.0 mph 90% 0.00 in
07:07 32.9 °F 30.3 °F 23.37 in Calm   -999.0 mph 90% 0.00 in
07:23 32.9 °F 30.3 °F 23.36 in Calm   -999.0 mph 90% 0.00 in
07:38 32.9 °F 30.3 °F 23.37 in Calm   -999.0 mph 90% 0.00 in
07:53 33.4 °F 30.8 °F 23.37 in North 2.7 mph -999.0 mph 90% 0.00 in
08:08 34.2 °F 31.3 °F 23.37 in Calm   -999.0 mph 89% 0.00 in
08:24 34.9 °F 32.0 °F 23.37 in Calm   -999.0 mph 89% 0.00 in
08:39 36.3 °F 32.8 °F 23.37 in Calm   -999.0 mph 87% 0.00 in
09:09 39.0 °F 34.3 °F 23.38 in Calm   -999.0 mph 83% 0.00 in
09:25 40.1 °F 35.0 °F 23.37 in Calm   -999.0 mph 82% 0.00 in
09:40 40.5 °F 35.1 °F 23.38 in SE 2.7 mph -999.0 mph 81% 0.00 in
09:56 40.1 °F 34.7 °F 23.39 in West 5.8 mph -999.0 mph 81% 0.00 in
10:12 40.6 °F 35.8 °F 23.39 in WNW 5.3 mph -999.0 mph 83% 0.00 in
10:27 41.0 °F 35.9 °F 23.39 in NW 4.7 mph -999.0 mph 82% 0.00 in
10:42 42.8 °F 37.4 °F 23.40 in WNW 5.8 mph -999.0 mph 81% 0.00 in
10:58 43.3 °F 37.9 °F 23.40 in NW 5.8 mph -999.0 mph 81% 0.00 in
11:13 43.9 °F 38.8 °F 23.40 in WNW 6.8 mph -999.0 mph 82% 0.00 in
11:28 45.0 °F 38.6 °F 23.40 in NW 6.3 mph -999.0 mph 78% 0.00 in
11:44 45.1 °F 39.0 °F 23.40 in NW 4.2 mph -999.0 mph 79% 0.00 in
11:59 44.8 °F 39.3 °F 23.41 in West 6.3 mph -999.0 mph 81% 0.00 in
12:15 43.0 °F 38.5 °F 23.41 in WNW 8.3 mph -999.0 mph 84% 0.00 in
12:30 45.3 °F 39.2 °F 23.41 in NW 5.8 mph -999.0 mph 79% 0.00 in
12:45 47.1 °F 38.9 °F 23.41 in North 3.2 mph -999.0 mph 73% 0.00 in
13:00 42.4 °F 37.6 °F 23.42 in WSW 4.7 mph -999.0 mph 83% 0.00 in
13:15 43.7 °F 38.3 °F 23.42 in West 4.7 mph -999.0 mph 81% 0.00 in
13:31 44.8 °F 39.0 °F 23.40 in NNW 4.2 mph -999.0 mph 80% 0.00 in
13:46 46.0 °F 39.5 °F 23.40 in NW 5.8 mph -999.0 mph 78% 0.00 in
14:02 46.9 °F 39.4 °F 23.40 in West 4.7 mph -999.0 mph 75% 0.00 in
14:17 46.6 °F 39.4 °F 23.38 in West 4.7 mph -999.0 mph 76% 0.00 in
14:32 45.0 °F 38.9 °F 23.39 in WNW 6.8 mph -999.0 mph 79% 0.00 in
14:47 43.3 °F 37.5 °F 23.40 in South 4.7 mph -999.0 mph 80% 0.00 in
15:03 41.5 °F 37.0 °F 23.40 in SW 2.2 mph -999.0 mph 84% 0.00 in
15:18 40.8 °F 36.6 °F 23.40 in SSE 1.7 mph -999.0 mph 85% 0.00 in
15:33 41.2 °F 36.7 °F 23.40 in Calm   -999.0 mph 84% 0.00 in
15:48 41.9 °F 37.1 °F 23.40 in NW 4.2 mph -999.0 mph 83% 0.00 in
16:04 42.6 °F 37.2 °F 23.40 in Calm   -999.0 mph 81% 0.00 in
16:19 43.2 °F 37.4 °F 23.40 in NW 4.2 mph -999.0 mph 80% 0.00 in
16:35 41.5 °F 36.7 °F 23.40 in Calm   -999.0 mph 83% 0.00 in
16:50 41.4 °F 36.9 °F 23.40 in NW 4.2 mph -999.0 mph 84% 0.00 in
17:05 40.3 °F 36.4 °F 23.40 in NW 3.7 mph -999.0 mph 86% 0.00 in
17:20 40.1 °F 36.3 °F 23.40 in SE 2.2 mph -999.0 mph 86% 0.00 in
17:36 39.0 °F 35.5 °F 23.40 in North 3.7 mph -999.0 mph 87% 0.00 in
17:51 39.0 °F 35.5 °F 23.41 in Calm   -999.0 mph 87% 0.00 in
18:06 37.8 °F 35.4 °F 23.41 in NNW 3.2 mph -999.0 mph 91% 0.00 in
18:21 37.9 °F 35.5 °F 23.41 in Calm   -999.0 mph 91% 0.00 in
18:36 37.8 °F 35.4 °F 23.40 in NW 2.2 mph -999.0 mph 91% 0.00 in
18:52 37.6 °F 35.5 °F 23.40 in Calm   -999.0 mph 92% 0.00 in
19:07 37.4 °F 35.3 °F 23.40 in Calm   -999.0 mph 92% 0.00 in
19:22 37.2 °F 35.1 °F 23.39 in Calm   -999.0 mph 92% 0.00 in
19:37 37.2 °F 35.4 °F 23.39 in NW 2.2 mph -999.0 mph 93% 0.00 in
19:52 36.7 °F 34.9 °F 23.40 in Calm   -999.0 mph 93% 0.00 in
20:08 36.3 °F 34.7 °F 23.41 in SSW 2.7 mph -999.0 mph 94% 0.00 in
20:23 36.5 °F 34.9 °F 23.41 in NW 1.1 mph -999.0 mph 94% 0.00 in
20:38 36.5 °F 34.9 °F 23.42 in Calm   -999.0 mph 94% 0.00 in
20:53 36.0 °F 34.7 °F 23.42 in South 2.2 mph -999.0 mph 95% 0.00 in
21:09 36.0 °F 34.7 °F 23.42 in Calm   -999.0 mph 95% 0.00 in
21:24 36.3 °F 34.5 °F 23.43 in ESE 1.1 mph -999.0 mph 93% 0.00 in
21:39 36.1 °F 33.7 °F 23.43 in Calm   -999.0 mph 91% 0.00 in
21:54 36.1 °F 33.5 °F 23.43 in Calm   -999.0 mph 90% 0.00 in
22:10 36.1 °F 33.2 °F 23.44 in SSE 1.7 mph -999.0 mph 89% 0.00 in
22:25 36.0 °F 32.8 °F 23.44 in Calm   -999.0 mph 88% 0.00 in
22:40 36.0 °F 32.8 °F 23.43 in Calm   -999.0 mph 88% 0.00 in
22:55 35.8 °F 32.9 °F 23.44 in Calm   -999.0 mph 89% 0.00 in
23:10 35.1 °F 32.5 °F 23.43 in Calm   -999.0 mph 90% 0.00 in
23:26 34.2 °F 32.1 °F 23.43 in Calm   -999.0 mph 92% 0.00 in
23:41 33.4 °F 31.1 °F 23.43 in Calm   -999.0 mph 91% 0.00 in
23:56 32.9 °F 30.8 °F 23.43 in Calm   -999.0 mph 92% 0.00 in
Big Bear CA Weather